Elaine, AR (72333)

6:20 PM CDT on August 01, 2014 (GMT -0500)
Fletcher (KCKM) Elev 174 ft | 34.30 °N, 90.51 °W | Change Station

Current weather conditions updated 5 minutes ago

Scattered Clouds
Scattered Clouds
81 °F
Feels Like 83 °F
N
0
Wind Variable Wind from North

Tomorrow is forecast to be Warmer than today. Afternoon showers and thunderstorms.

Today
High -- | Low -- °F
--% Chance of Precip.
Yesterday
High -- | Low -- °F
Precip. -- in
6:14 AM 8:04 PM
Waxing Crescent, 30% visible
Pressure 30.01 in
Visibility 10.0 miles
Clouds Few 9000 ft
Scattered Clouds 11000 ft
Heat Index 83 °F
Dew Point 68 °F
Humidity 65%
Rainfall 0.06 in
Snow Depth Not available.
UV 1 out of 12
Pollen 6.60 out of 12
Air Quality Not available.
Flu Activity Not available.
METAR KCKM 012315Z AUTO 00000KT 10SM FEW090 SCT110 27/20 A3001 RMK AO1

More Conditions Fewer Conditions

Pressure 30.01 in
Visibility 10.0 miles
Clouds Few 9000 ft
Scattered Clouds 11000 ft
Heat Index 83 °F
Dew Point 68 °F
Humidity 65%
Rainfall 0.06 in
Snow Depth Not available.
UV 1 out of 12
Pollen 6.60 out of 12
Air Quality Not available.
Flu Activity Not available.
METAR KCKM 012315Z AUTO 00000KT 10SM FEW090 SCT110 27/20 A3001 RMK AO1

More Conditions Fewer Conditions

10-Day Weather Forecast

Almanac

Astronomy

Aug. 01, 2014 Rise Set
Actual Time 6:14 AM CDT 8:04 PM CDT
Civil Twilight 5:46 AM CDT 8:32 PM CDT
Nautical Twilight 5:13 AM CDT 9:05 PM CDT
Astronomical Twilight 4:38 AM CDT 9:40 PM CDT
Moon 11:22 AM CDT 11:06 PM CDT
Length of Visible Light 14h 45m
Length of Day
13h 50m
Tomorrow will be 1m 37s shorter.
Waxing Crescent, 30% of the Moon is Illuminated
Today
Waxing Crescent
Aug 3
First Quarter
Aug 10
Full
Aug 17
Last Quarter
Aug 25
New

Today's Extremes

State Highs State Lows

Community

WunderPhotos

Upload Photos

1,739,751 photos uploaded!

Nearby

Snow Depth

Station Depth Elevation
No new snow has been reported.

Earthquake Activity

City Distance Mag. Time & Date
No recent earthquake activity has been reported nearby.
Minimum magnitude displayed is 2.5.

Coastal Water Temperatures

Place Temperature
No Stations Reporting

Nearby Weather Stations

Station Location Temp. Heat Index Dew Point Humidity Wind Precip. Elev Updated Type
Clarksdale, Clarksdale, MS 80.2 °F 84 °F 73 °F 78% South  at  0.0 mph 0.00 in / hr 164 ft 6:20 PM CDT Rapid Fire

Show More Stations Show Fewer Stations